Time;durP1;ratioP1;P1;durP2;ratioP2;P2;SDS_P1;SDS_P2;PMS_P1;PMS_P2;Temp;Humidity;BMP_temperature;BMP_pressure;BME280_temperature;BME280_humidity;BME280_pressure;Samples;Min_cycle;Max_cycle;Signal;HPM_P1;HPM_P2
2022/07/05 00:00:46;;;;;;;54.25;10.75;;;12.60;99.90;;;;;;4995628;28;20085;-66
2022/07/05 00:03:13;;;;;;;11.88;8.43;;;12.60;99.90;;;;;;4997134;28;20042;-66
2022/07/05 00:05:39;;;;;;;13.05;8.65;;;12.60;99.90;;;;;;4996922;28;20487;-66
2022/07/05 00:08:05;;;;;;;15.60;7.57;;;12.60;99.90;;;;;;4996929;28;20092;-66
2022/07/05 00:10:32;;;;;;;13.05;9.18;;;12.50;99.90;;;;;;5008301;28;20099;-66
2022/07/05 00:12:58;;;;;;;10.48;8.63;;;12.50;99.90;;;;;;5014875;28;20570;-66
2022/07/05 00:15:24;;;;;;;10.95;8.90;;;12.50;99.90;;;;;;5012626;28;20136;-66
2022/07/05 00:17:50;;;;;;;14.48;9.93;;;12.50;99.90;;;;;;5014826;28;20048;-66
2022/07/05 00:20:16;;;;;;;12.63;10.20;;;12.50;99.90;;;;;;5016193;28;20049;-66
2022/07/05 00:22:42;;;;;;;12.85;9.38;;;12.50;99.90;;;;;;5014977;28;20049;-66
2022/07/05 00:25:09;;;;;;;14.27;9.77;;;12.50;99.90;;;;;;5015058;28;20042;-66
2022/07/05 00:27:35;;;;;;;13.60;10.13;;;12.50;99.90;;;;;;5015000;28;20123;-66
2022/07/05 00:30:00;;;;;;;15.15;9.77;;;12.50;99.90;;;;;;5014712;28;20163;-66
2022/07/05 00:32:26;;;;;;;13.95;10.07;;;12.50;99.90;;;;;;5014818;28;20037;-66
2022/07/05 00:34:52;;;;;;;16.20;10.32;;;12.50;99.90;;;;;;4998224;28;20038;-66
2022/07/05 00:37:18;;;;;;;13.15;9.18;;;12.50;99.90;;;;;;5014922;28;20045;-66
2022/07/05 00:39:44;;;;;;;13.35;9.00;;;12.50;99.90;;;;;;5015826;28;20460;-66
2022/07/05 00:42:10;;;;;;;11.65;9.27;;;12.40;99.90;;;;;;5014545;28;20038;-66
2022/07/05 00:44:39;;;;;;;14.50;9.82;;;12.40;99.90;;;;;;5012152;28;20100;-66
2022/07/05 00:47:06;;;;;;;13.18;9.18;;;12.30;99.90;;;;;;5031189;28;20046;-66
2022/07/05 00:49:33;;;;;;;12.55;8.93;;;12.30;99.90;;;;;;5015783;28;20046;-66
2022/07/05 00:52:00;;;;;;;11.70;9.05;;;12.20;99.90;;;;;;5015620;28;20703;-66
2022/07/05 00:54:31;;;;;;;11.40;9.30;;;12.20;99.90;;;;;;5015344;28;20038;-66
2022/07/05 00:56:58;;;;;;;12.05;9.98;;;12.10;99.90;;;;;;5015701;28;20029;-67
2022/07/05 00:59:24;;;;;;;11.45;9.25;;;12.10;99.90;;;;;;5014125;28;20042;-66
2022/07/05 01:01:50;;;;;;;17.05;11.10;;;12.00;99.90;;;;;;5014062;28;20085;-66
2022/07/05 01:04:16;;;;;;;16.52;11.07;;;12.00;99.90;;;;;;5014333;28;20124;-67
2022/07/05 01:06:44;;;;;;;11.18;9.35;;;12.00;99.90;;;;;;5013103;28;20100;-66
2022/07/05 01:09:15;;;;;;;12.23;9.82;;;11.90;99.90;;;;;;5014237;28;20053;-67
2022/07/05 01:11:47;;;;;;;11.20;8.27;;;11.90;99.90;;;;;;5015164;28;20074;-67
2022/07/05 01:14:17;;;;;;;17.42;12.30;;;11.90;99.90;;;;;;5013583;28;20046;-68
2022/07/05 01:16:43;;;;;;;15.27;10.50;;;11.90;99.90;;;;;;5015374;28;20061;-68
2022/07/05 01:19:14;;;;;;;193.38;18.30;;;11.90;99.90;;;;;;5015089;28;20057;-68
2022/07/05 01:21:44;;;;;;;236.48;20.58;;;11.90;99.90;;;;;;5014350;28;20050;-67
2022/07/05 01:24:14;;;;;;;15.80;10.05;;;11.80;99.90;;;;;;5014418;28;20122;-67
2022/07/05 01:26:40;;;;;;;;;;;11.80;99.90;;;;;;4997005;28;20052;-67
2022/07/05 01:29:07;;;;;;;9.75;7.82;;;11.70;99.90;;;;;;4996613;28;19917;-68
2022/07/05 01:31:36;;;;;;;9.10;7.97;;;11.70;99.90;;;;;;5012665;28;20050;-67
2022/07/05 01:34:02;;;;;;;13.05;9.00;;;11.70;99.90;;;;;;5012466;28;20046;-67
2022/07/05 01:36:28;;;;;;;11.00;9.00;;;11.70;99.90;;;;;;5013869;28;20034;-69
2022/07/05 01:38:54;;;;;;;15.10;9.55;;;11.80;99.90;;;;;;5013743;28;20504;-67
2022/07/05 01:41:19;;;;;;;12.30;9.02;;;11.80;99.90;;;;;;4996383;28;20046;-68
2022/07/05 01:43:45;;;;;;;10.13;8.73;;;11.90;99.90;;;;;;5012416;28;20511;-68
2022/07/05 01:46:14;;;;;;;10.23;8.10;;;11.90;99.90;;;;;;5011346;28;20042;-68
2022/07/05 01:48:41;;;;;;;15.15;9.25;;;11.80;99.90;;;;;;4996026;28;20042;-67
2022/07/05 01:51:24;;;;;;;10.60;9.25;;;11.80;99.90;;;;;;5012285;28;20053;-67
2022/07/05 01:53:52;;;;;;;11.88;9.60;;;11.90;99.90;;;;;;5013391;28;20038;-67
2022/07/05 01:56:18;;;;;;;10.52;8.95;;;11.80;99.90;;;;;;5012313;28;20507;-67
2022/07/05 01:58:45;;;;;;;12.90;9.32;;;11.80;99.90;;;;;;5012496;28;20419;-67
2022/07/05 02:01:11;;;;;;;9.98;8.45;;;11.80;99.90;;;;;;5013277;28;20054;-67
2022/07/05 02:03:38;;;;;;;12.07;9.77;;;11.80;99.90;;;;;;5013404;28;20050;-67
2022/07/05 02:06:06;;;;;;;11.02;8.63;;;11.80;99.90;;;;;;5011967;28;20042;-67
2022/07/05 02:08:31;;;;;;;11.57;8.32;;;11.80;99.90;;;;;;5013296;28;20042;-67
2022/07/05 02:10:57;;;;;;;12.68;8.60;;;11.70;99.90;;;;;;4979617;28;20081;-67
2022/07/05 02:13:24;;;;;;;9.65;7.85;;;11.70;99.90;;;;;;4976326;28;20085;-67
2022/07/05 02:15:50;;;;;;;13.23;9.00;;;11.60;99.90;;;;;;4989912;28;20056;-67
2022/07/05 02:18:15;;;;;;;10.23;8.95;;;11.60;99.90;;;;;;4991822;28;20053;-68
2022/07/05 02:20:41;;;;;;;9.57;8.57;;;11.60;99.90;;;;;;4993290;28;20069;-68
2022/07/05 02:23:08;;;;;;;7.80;7.00;;;11.40;99.90;;;;;;4993627;28;20408;-68
2022/07/05 02:25:34;;;;;;;10.52;8.82;;;11.40;99.90;;;;;;4993416;28;20073;-68
2022/07/05 02:28:01;;;;;;;9.63;8.63;;;11.30;99.90;;;;;;4993385;28;20404;-68
2022/07/05 02:30:27;;;;;;;10.07;8.02;;;11.20;99.90;;;;;;4991959;28;20074;-68
2022/07/05 02:32:53;;;;;;;13.40;10.48;;;11.20;99.90;;;;;;4975817;28;20042;-68
2022/07/05 02:35:19;;;;;;;15.57;10.75;;;11.20;99.90;;;;;;4992967;28;20096;-68
2022/07/05 02:37:45;;;;;;;15.18;11.10;;;11.10;99.90;;;;;;4992181;28;20097;-68
2022/07/05 02:40:13;;;;;;;11.93;9.65;;;11.10;99.90;;;;;;4975861;28;20386;-68
2022/07/05 02:42:39;;;;;;;10.88;9.05;;;11.10;99.90;;;;;;4991827;28;20039;-68
2022/07/05 02:45:06;;;;;;;13.55;9.57;;;11.10;99.90;;;;;;4989288;28;20049;-68
2022/07/05 02:47:34;;;;;;;12.48;9.95;;;11.10;99.90;;;;;;4991995;28;20408;-68
2022/07/05 02:50:04;;;;;;;14.85;10.25;;;11.10;99.90;;;;;;4991851;28;20143;-68
2022/07/05 02:52:30;;;;;;;12.05;8.95;;;11.10;99.90;;;;;;4975745;28;20049;-68
2022/07/05 02:54:56;;;;;;;9.05;7.65;;;11.10;99.90;;;;;;4992711;28;20420;-68
2022/07/05 02:57:22;;;;;;;11.75;9.93;;;11.10;99.90;;;;;;4993132;28;20088;-68
2022/07/05 02:59:48;;;;;;;14.13;9.63;;;11.10;99.90;;;;;;4992886;28;20556;-69
2022/07/05 03:02:13;;;;;;;12.98;9.35;;;11.10;99.90;;;;;;4974983;28;20046;-68
2022/07/05 03:04:39;;;;;;;11.38;9.13;;;11.20;99.90;;;;;;4991498;28;20129;-70
2022/07/05 03:07:06;;;;;;;11.70;9.38;;;11.20;99.90;;;;;;4991426;28;20046;-70
2022/07/05 03:09:32;;;;;;;12.95;9.75;;;11.30;99.90;;;;;;4997415;28;20038;-70
2022/07/05 03:11:58;;;;;;;15.38;9.63;;;11.20;99.90;;;;;;5012100;28;20478;-70
2022/07/05 03:14:25;;;;;;;10.77;9.68;;;11.20;99.90;;;;;;5008547;28;20042;-69
2022/07/05 03:16:50;;;;;;;11.32;10.07;;;11.30;99.90;;;;;;5011023;28;20579;-69
2022/07/05 03:19:16;;;;;;;11.82;10.15;;;11.30;99.90;;;;;;5011122;28;20142;-69
2022/07/05 03:21:43;;;;;;;11.65;8.85;;;11.30;99.90;;;;;;5011235;28;20444;-69
2022/07/05 03:24:09;;;;;;;14.35;10.15;;;11.30;99.90;;;;;;5011111;28;20495;-69
2022/07/05 03:26:35;;;;;;;10.80;9.15;;;11.30;99.90;;;;;;5010945;28;20125;-69
2022/07/05 03:29:01;;;;;;;12.60;9.98;;;11.30;99.90;;;;;;5009938;28;20049;-69
2022/07/05 03:31:26;;;;;;;11.35;9.65;;;11.30;99.90;;;;;;5011798;28;20046;-69
2022/07/05 03:33:52;;;;;;;11.23;8.77;;;11.30;99.90;;;;;;5010925;28;20100;-70
2022/07/05 03:36:18;;;;;;;13.93;9.80;;;11.30;99.90;;;;;;5012062;28;20038;-70
2022/07/05 03:38:44;;;;;;;11.45;9.25;;;11.30;99.90;;;;;;5012284;28;20044;-70
2022/07/05 03:41:09;;;;;;;14.00;9.57;;;11.30;99.90;;;;;;5011943;28;20037;-70
2022/07/05 03:43:35;;;;;;;12.65;9.20;;;11.30;99.90;;;;;;5010848;28;20049;-70
2022/07/05 03:46:01;;;;;;;12.85;9.05;;;11.30;99.90;;;;;;5008033;28;20438;-70
2022/07/05 03:48:27;;;;;;;11.10;9.90;;;11.30;99.90;;;;;;5012092;28;20049;-69
2022/07/05 03:50:53;;;;;;;12.15;9.15;;;11.40;99.90;;;;;;5010695;28;20443;-69
2022/07/05 03:53:19;;;;;;;10.02;8.98;;;11.40;99.90;;;;;;5012019;28;20141;-69
2022/07/05 03:55:44;;;;;;;12.05;9.63;;;11.40;99.90;;;;;;5011756;28;20503;-68
2022/07/05 03:58:10;;;;;;;12.98;10.80;;;11.40;99.90;;;;;;5010687;28;20078;-69
2022/07/05 04:00:36;;;;;;;12.90;10.45;;;11.50;99.90;;;;;;5011532;28;20077;-68
2022/07/05 04:03:02;;;;;;;11.35;9.70;;;11.60;99.90;;;;;;4994077;28;20050;-69
2022/07/05 04:05:28;;;;;;;12.65;9.88;;;11.60;99.90;;;;;;5010421;28;20053;-68
2022/07/05 04:07:55;;;;;;;15.80;10.48;;;11.70;99.90;;;;;;4994297;28;20046;-68
2022/07/05 04:10:22;;;;;;;14.68;11.52;;;11.80;99.90;;;;;;5000233;28;20050;-67
2022/07/05 04:12:48;;;;;;;14.07;10.65;;;11.90;99.90;;;;;;4990697;28;20073;-68
2022/07/05 04:15:14;;;;;;;14.13;10.32;;;12.00;99.90;;;;;;4988091;28;20078;-68
2022/07/05 04:17:55;;;;;;;12.95;11.02;;;12.10;99.90;;;;;;4992087;28;20068;-68
2022/07/05 04:20:22;;;;;;;12.57;8.85;;;12.30;99.90;;;;;;4991051;28;20388;-68
2022/07/05 04:22:49;;;;;;;10.30;9.18;;;12.40;99.90;;;;;;4990633;28;20045;-67
2022/07/05 04:25:19;;;;;;;10.80;8.40;;;12.40;99.90;;;;;;4990795;28;20038;-69
2022/07/05 04:27:53;;;;;;;11.77;8.85;;;12.50;99.90;;;;;;4990645;28;20034;-68
2022/07/05 04:30:20;;;;;;;10.55;8.32;;;12.50;99.90;;;;;;4990861;28;20396;-68
2022/07/05 04:32:46;;;;;;;9.63;8.05;;;12.50;99.90;;;;;;4991921;28;20046;-68
2022/07/05 04:35:13;;;;;;;12.50;8.57;;;12.60;99.90;;;;;;4991775;28;20436;-68
2022/07/05 04:37:39;;;;;;;9.45;8.48;;;12.60;99.90;;;;;;4974320;28;20104;-68
2022/07/05 04:40:06;;;;;;;11.30;8.75;;;12.70;99.90;;;;;;4974613;28;20050;-67
2022/07/05 04:42:32;;;;;;;12.10;8.60;;;12.70;99.90;;;;;;4977918;28;20468;-67
2022/07/05 04:44:58;;;;;;;11.60;8.20;;;12.90;99.90;;;;;;4993028;28;20105;-67
2022/07/05 04:47:28;;;;;;;10.43;7.68;;;13.00;99.90;;;;;;4993948;28;20273;-67
2022/07/05 04:49:54;;;;;;;9.02;7.57;;;13.20;99.90;;;;;;4995157;28;20519;-67
2022/07/05 04:52:20;;;;;;;11.55;7.07;;;13.30;99.90;;;;;;4977444;28;20042;-67
2022/07/05 04:54:46;;;;;;;9.73;6.97;;;13.40;99.90;;;;;;4993745;28;20074;-67
2022/07/05 04:57:12;;;;;;;10.13;7.30;;;13.60;99.90;;;;;;4993667;28;20113;-67
2022/07/05 04:59:38;;;;;;;9.65;6.57;;;13.70;99.90;;;;;;4995273;28;20129;-67
2022/07/05 05:02:04;;;;;;;8.30;7.50;;;13.70;99.90;;;;;;4993544;28;20437;-67
2022/07/05 05:04:30;;;;;;;11.60;6.72;;;13.70;99.90;;;;;;4995131;28;20060;-67
2022/07/05 05:06:56;;;;;;;7.53;5.75;;;13.70;99.90;;;;;;4993700;28;20121;-68
2022/07/05 05:09:22;;;;;;;7.82;6.38;;;13.80;99.90;;;;;;4996823;28;20095;-69
2022/07/05 05:11:48;;;;;;;7.13;5.25;;;13.80;99.90;;;;;;5013032;28;20061;-70
2022/07/05 05:14:14;;;;;;;6.60;5.80;;;13.80;99.90;;;;;;5012256;28;20072;-68
2022/07/05 05:16:40;;;;;;;9.27;5.60;;;13.90;99.90;;;;;;5011609;28;20081;-69
2022/07/05 05:19:05;;;;;;;8.38;6.45;;;13.90;99.90;;;;;;5013189;28;20076;-68
2022/07/05 05:21:32;;;;;;;7.82;4.88;;;14.00;99.90;;;;;;5013217;28;20092;-69
2022/07/05 05:23:57;;;;;;;7.38;5.60;;;14.00;99.90;;;;;;5014701;28;20057;-70
2022/07/05 05:26:23;;;;;;;7.00;5.22;;;14.10;99.90;;;;;;4996527;28;20038;-69
2022/07/05 05:28:50;;;;;;;6.13;5.13;;;14.20;99.90;;;;;;5014233;28;20385;-70
2022/07/05 05:31:17;;;;;;;6.35;5.40;;;14.30;99.90;;;;;;5012776;28;20582;-68
2022/07/05 05:33:43;;;;;;;6.68;5.07;;;14.50;99.90;;;;;;4996381;28;20096;-69
2022/07/05 05:36:09;;;;;;;5.85;5.05;;;14.60;99.90;;;;;;5012665;28;20042;-69
2022/07/05 05:38:35;;;;;;;7.30;4.95;;;14.70;99.90;;;;;;5013869;28;20488;-68
2022/07/05 05:41:01;;;;;;;7.30;4.10;;;14.80;99.90;;;;;;4996247;28;20073;-69
2022/07/05 05:43:27;;;;;;;8.52;3.30;;;15.00;99.90;;;;;;4996161;28;20100;-69
2022/07/05 05:45:53;;;;;;;5.68;3.05;;;15.20;99.90;;;;;;5011304;28;20049;-69
2022/07/05 05:48:20;;;;;;;7.10;3.10;;;15.30;99.90;;;;;;5013601;28;20042;-69
2022/07/05 05:50:46;;;;;;;5.53;3.03;;;15.40;99.90;;;;;;4996404;28;20385;-69
2022/07/05 05:53:12;;;;;;;7.88;3.63;;;15.60;99.90;;;;;;5011849;28;20042;-68
2022/07/05 05:55:38;;;;;;;5.05;2.72;;;15.70;99.90;;;;;;5012278;28;20574;-68
2022/07/05 05:58:11;;;;;;;7.40;3.90;;;15.90;99.90;;;;;;4995933;28;20053;-69
2022/07/05 06:00:37;;;;;;;6.55;3.38;;;16.00;99.90;;;;;;5013866;28;20042;-68
2022/07/05 06:03:03;;;;;;;5.28;2.50;;;16.20;99.90;;;;;;5012076;28;20129;-68
2022/07/05 06:05:28;;;;;;;3.65;1.55;;;16.40;99.90;;;;;;5012189;28;20507;-67
2022/07/05 06:07:55;;;;;;;4.05;1.52;;;16.50;99.90;;;;;;5011921;28;20044;-69
2022/07/05 06:10:30;;;;;;;2.60;1.20;;;16.70;99.90;;;;;;5000712;28;20571;-68
2022/07/05 06:12:57;;;;;;;3.00;1.45;;;16.80;99.90;;;;;;4992360;28;20563;-68
2022/07/05 06:15:23;;;;;;;5.65;1.73;;;16.90;99.90;;;;;;4989849;28;20049;-67
2022/07/05 06:17:50;;;;;;;6.05;1.80;;;17.00;99.90;;;;;;4992273;28;20129;-69
2022/07/05 06:20:20;;;;;;;2.53;0.80;;;17.10;99.90;;;;;;4976313;28;20038;-67
2022/07/05 06:22:47;;;;;;;4.57;0.82;;;17.20;99.90;;;;;;4994305;28;20388;-68
2022/07/05 06:25:13;;;;;;;3.45;1.00;;;17.30;99.90;;;;;;4993498;28;20050;-67
2022/07/05 06:27:44;;;;;;;2.75;0.90;;;17.30;99.90;;;;;;4993365;28;20046;-66
2022/07/05 06:30:10;;;;;;;6.32;1.50;;;17.30;99.90;;;;;;4993320;28;20104;-67
2022/07/05 06:32:37;;;;;;;2.90;1.00;;;17.30;99.90;;;;;;4993155;28;20046;-67
2022/07/05 06:35:03;;;;;;;5.32;1.70;;;17.50;99.90;;;;;;4992175;28;20038;-66
2022/07/05 06:37:41;;;;;;;3.55;0.90;;;17.70;99.90;;;;;;4993345;28;20523;-67
2022/07/05 06:40:08;;;;;;;3.97;0.73;;;18.00;99.90;;;;;;4992210;28;20042;-66
2022/07/05 06:42:34;;;;;;;4.60;1.05;;;18.10;99.90;;;;;;4977569;28;20293;-67
2022/07/05 06:45:00;;;;;;;2.97;0.90;;;18.20;99.90;;;;;;4992395;28;20041;-69
2022/07/05 06:47:26;;;;;;;3.53;0.65;;;18.40;99.90;;;;;;4992329;28;20045;-66
2022/07/05 06:49:52;;;;;;;5.47;1.10;;;18.70;99.90;;;;;;4992051;28;20054;-64
2022/07/05 06:52:17;;;;;;;3.20;0.80;;;19.00;99.90;;;;;;4993196;28;20046;-65
2022/07/05 06:54:43;;;;;;;3.78;0.85;;;19.40;99.90;;;;;;4992996;28;20042;-65
2022/07/05 06:57:09;;;;;;;2.50;0.70;;;19.60;99.90;;;;;;4993156;28;20500;-63
2022/07/05 06:59:35;;;;;;;3.50;0.90;;;19.70;99.90;;;;;;4992280;28;20043;-67
2022/07/05 07:02:00;;;;;;;2.47;0.80;;;19.80;99.90;;;;;;4999925;28;20053;-65
2022/07/05 07:04:26;;;;;;;5.03;0.85;;;19.90;99.90;;;;;;5011475;28;20085;-64
2022/07/05 07:06:52;;;;;;;4.93;0.90;;;20.10;99.90;;;;;;5012994;28;20149;-64
2022/07/05 07:09:18;;;;;;;2.90;0.88;;;20.30;99.90;;;;;;5009999;28;20089;-64
2022/07/05 07:11:44;;;;;;;4.78;1.08;;;20.50;99.90;;;;;;4993286;28;20097;-64
2022/07/05 07:14:10;;;;;;;3.10;1.00;;;20.60;99.90;;;;;;4993081;28;20046;-64
2022/07/05 07:16:36;;;;;;;3.95;0.82;;;20.60;99.90;;;;;;4990843;28;20085;-64
2022/07/05 07:19:02;;;;;;;5.43;0.90;;;20.70;99.90;;;;;;4992507;28;20046;-64
2022/07/05 07:21:28;;;;;;;3.33;0.75;;;20.90;99.90;;;;;;5010597;28;20084;-64
2022/07/05 07:23:54;;;;;;;3.50;0.80;;;21.20;99.90;;;;;;5012461;28;20049;-65
2022/07/05 07:26:19;;;;;;;3.63;0.77;;;21.40;99.90;;;;;;5012605;28;20125;-65
2022/07/05 07:28:45;;;;;;;1.48;0.70;;;21.50;99.90;;;;;;5010233;28;20518;-64
2022/07/05 07:31:11;;;;;;;2.22;0.68;;;21.60;99.90;;;;;;5011591;28;20042;-64
2022/07/05 07:33:37;;;;;;;2.85;0.50;;;21.70;99.90;;;;;;5014595;28;20045;-64
2022/07/05 07:36:03;;;;;;;3.67;0.63;;;21.60;99.90;;;;;;5030609;28;20065;-63
2022/07/05 07:38:29;;;;;;;3.60;0.57;;;21.60;99.90;;;;;;5008197;28;20057;-64
2022/07/05 07:40:55;;;;;;;3.38;0.55;;;21.50;99.90;;;;;;5030577;28;20045;-63
2022/07/05 07:43:21;;;;;;;1.95;0.40;;;21.40;99.90;;;;;;5021824;28;20049;-63
2022/07/05 07:45:48;;;;;;;3.83;0.73;;;21.30;99.90;;;;;;5009452;28;20041;-63
2022/07/05 07:48:14;;;;;;;3.28;1.00;;;21.30;99.90;;;;;;5011792;28;20767;-64
2022/07/05 07:50:40;;;;;;;2.65;0.75;;;21.40;99.90;;;;;;5010387;28;20062;-64
2022/07/05 07:53:05;;;;;;;2.15;0.70;;;21.60;99.90;;;;;;5011763;28;20506;-64
2022/07/05 07:55:31;;;;;;;3.28;0.70;;;21.80;99.90;;;;;;5019986;28;20037;-63
2022/07/05 07:57:57;;;;;;;5.00;0.93;;;22.00;99.90;;;;;;5030117;28;20495;-64
2022/07/05 08:00:23;;;;;;;4.57;0.65;;;22.10;99.90;;;;;;5031215;28;20076;-64
2022/07/05 08:02:49;;;;;;;3.15;0.73;;;22.10;99.90;;;;;;5029916;28;20058;-63
2022/07/05 08:05:15;;;;;;;3.47;0.75;;;22.10;99.90;;;;;;5030270;28;20045;-64
2022/07/05 08:07:41;;;;;;;4.70;0.60;;;22.30;99.90;;;;;;5030309;28;20479;-63
2022/07/05 08:10:07;;;;;;;2.67;0.80;;;22.30;99.90;;;;;;5020545;28;20045;-64
2022/07/05 08:12:33;;;;;;;4.50;1.00;;;22.50;99.90;;;;;;5010236;28;20567;-64
2022/07/05 08:14:59;;;;;;;2.88;0.93;;;22.50;99.90;;;;;;5007865;28;20045;-64
2022/07/05 08:17:25;;;;;;;5.18;0.80;;;22.30;99.90;;;;;;5013965;28;20044;-63
2022/07/05 08:22:35;;;;;;;3.72;1.00;;;21.70;99.90;;;;;;5015482;28;20042;-64
2022/07/05 08:25:01;;;;;;;3.72;0.80;;;21.70;99.90;;;;;;5014169;28;20488;-65
2022/07/05 08:27:27;;;;;;;4.50;1.08;;;22.00;99.90;;;;;;5015219;28;20041;-63
2022/07/05 08:29:53;;;;;;;4.03;1.10;;;22.30;99.70;;;;;;5015004;28;20052;-63
2022/07/05 08:32:18;;;;;;;4.05;0.80;;;22.10;99.10;;;;;;5015355;28;20164;-64
2022/07/05 08:34:44;;;;;;;2.70;0.60;;;21.90;99.00;;;;;;5013940;28;20034;-63
2022/07/05 08:37:11;;;;;;;2.58;0.73;;;21.70;99.20;;;;;;5013948;28;20399;-63
2022/07/05 08:39:37;;;;;;;3.03;0.88;;;21.50;99.80;;;;;;5013657;28;20038;-63
2022/07/05 08:42:03;;;;;;;3.28;1.00;;;21.30;99.90;;;;;;5013666;28;20072;-63
2022/07/05 08:44:33;;;;;;;3.70;0.90;;;21.00;99.80;;;;;;5011090;28;20491;-63
2022/07/05 08:47:02;;;;;;;4.15;0.80;;;20.90;99.90;;;;;;5013513;28;20647;-65
2022/07/05 08:49:30;;;;;;;2.65;0.60;;;21.00;99.90;;;;;;5013741;28;20049;-63
2022/07/05 08:51:56;;;;;;;2.35;0.80;;;21.30;99.90;;;;;;5014952;28;20121;-65
2022/07/05 08:54:24;;;;;;;3.65;0.90;;;21.40;99.90;;;;;;5012475;28;20045;-64
2022/07/05 08:56:51;;;;;;;2.88;0.85;;;21.40;99.90;;;;;;5014538;28;20046;-65
2022/07/05 08:59:17;;;;;;;2.75;1.00;;;21.20;99.90;;;;;;5013279;28;20073;-63
2022/07/05 09:01:46;;;;;;;4.03;1.10;;;20.80;99.90;;;;;;5013355;28;20100;-63
2022/07/05 09:04:13;;;;;;;4.47;1.05;;;20.60;99.90;;;;;;5014589;28;20451;-63
2022/07/05 09:06:40;;;;;;;4.15;1.05;;;20.60;99.90;;;;;;5013445;28;20124;-63
2022/07/05 09:09:07;;;;;;;4.03;1.00;;;20.50;99.90;;;;;;4995705;28;20046;-64
2022/07/05 09:11:35;;;;;;;4.43;1.17;;;20.40;99.90;;;;;;4994653;28;20046;-64
2022/07/05 09:14:03;;;;;;;3.40;0.85;;;20.20;99.90;;;;;;4994659;28;20108;-64
2022/07/05 09:16:30;;;;;;;3.05;0.98;;;20.10;99.90;;;;;;4990917;28;20081;-63
2022/07/05 09:19:04;;;;;;;3.83;1.35;;;20.00;99.90;;;;;;4993433;28;20045;-63
2022/07/05 09:21:29;;;;;;;4.45;0.80;;;20.00;99.90;;;;;;4993284;28;20042;-64
2022/07/05 09:24:07;;;;;;;3.38;0.80;;;20.00;99.90;;;;;;4994511;28;20100;-63
2022/07/05 09:26:34;;;;;;;3.83;0.80;;;20.20;99.90;;;;;;4992933;28;20042;-63
2022/07/05 09:29:05;;;;;;;5.65;1.27;;;20.30;99.90;;;;;;5013258;28;20056;-63
2022/07/05 09:31:42;;;;;;;2.00;0.80;;;20.40;99.90;;;;;;4996501;28;20104;-63
2022/07/05 09:34:10;;;;;;;1.92;0.93;;;20.40;99.90;;;;;;5013976;28;20042;-63
2022/07/05 09:36:53;;;;;;;1.67;0.90;;;20.20;99.90;;;;;;5012782;28;20534;-63
2022/07/05 09:39:31;;;;;;;3.75;1.17;;;20.00;99.90;;;;;;4996368;28;20522;-63
2022/07/05 09:42:22;;;;;;;1.95;0.82;;;20.10;99.90;;;;;;5012853;28;20041;-64
2022/07/05 09:44:50;;;;;;;4.25;1.13;;;20.50;99.90;;;;;;5011448;28;20086;-63
2022/07/05 09:47:18;;;;;;;5.53;1.30;;;20.80;99.90;;;;;;5013099;28;20151;-64
2022/07/05 09:49:49;;;;;;;4.05;0.88;;;20.80;99.90;;;;;;5013538;28;20405;-63
2022/07/05 09:52:27;;;;;;;3.55;1.00;;;20.80;99.90;;;;;;5013579;28;20396;-63
2022/07/05 09:55:19;;;;;;;3.20;0.70;;;20.80;99.90;;;;;;4996977;28;20389;-63
2022/07/05 09:57:50;;;;;;;2.78;0.93;;;20.70;99.90;;;;;;4996776;28;20088;-63
2022/07/05 10:00:19;;;;;;;3.90;0.90;;;20.40;99.90;;;;;;5012964;28;20484;-63
2022/07/05 10:02:58;;;;;;;4.65;1.23;;;20.20;99.90;;;;;;5012905;28;20061;-65
2022/07/05 10:05:26;;;;;;;3.05;0.82;;;20.30;99.90;;;;;;5012942;28;20136;-64
2022/07/05 10:07:54;;;;;;;4.88;1.10;;;20.60;99.90;;;;;;5013264;28;20201;-64
2022/07/05 10:10:24;;;;;;;2.55;0.90;;;20.90;99.90;;;;;;5005935;28;20037;-65
2022/07/05 10:12:53;;;;;;;6.05;1.10;;;21.40;99.90;;;;;;5014115;28;20045;-64
2022/07/05 10:15:25;;;;;;;4.18;0.80;;;21.70;99.90;;;;;;5010526;28;20188;-63
2022/07/05 10:17:57;;;;;;;2.95;0.80;;;21.90;99.90;;;;;;5013925;28;20484;-64
2022/07/05 10:20:33;;;;;;;3.38;1.05;;;21.70;99.90;;;;;;5013839;28;20053;-65
2022/07/05 10:23:02;;;;;;;4.13;1.00;;;21.50;99.90;;;;;;5013036;28;20042;-64
2022/07/05 10:25:28;;;;;;;;;;;21.70;99.90;;;;;;5014487;28;20054;-63
2022/07/05 10:27:55;;;;;;;5.15;1.60;;;21.80;99.90;;;;;;5012732;28;19917;-65
2022/07/05 10:30:23;;;;;;;4.00;0.93;;;21.80;99.90;;;;;;4996385;28;20096;-64
2022/07/05 10:32:49;;;;;;;2.83;0.60;;;21.70;99.60;;;;;;4996069;28;20044;-63
2022/07/05 10:35:17;;;;;;;3.28;0.90;;;21.60;99.30;;;;;;5012163;28;20056;-64
2022/07/05 10:37:43;;;;;;;3.90;1.02;;;21.70;99.60;;;;;;5012210;28;20037;-65
2022/07/05 10:40:10;;;;;;;3.85;0.93;;;21.90;98.70;;;;;;5012282;28;20080;-64
2022/07/05 10:42:40;;;;;;;3.72;0.80;;;22.10;98.60;;;;;;5013755;28;20042;-64
2022/07/05 10:45:25;;;;;;;1.52;0.75;;;22.30;98.20;;;;;;5011491;28;20057;-65
2022/07/05 10:48:09;;;;;;;3.15;1.20;;;22.60;98.00;;;;;;5012313;28;20041;-64
2022/07/05 10:50:56;;;;;;;2.83;1.00;;;22.80;97.40;;;;;;5013712;28;20057;-64
2022/07/05 10:53:26;;;;;;;3.03;1.00;;;23.00;96.10;;;;;;5013568;28;20030;-65
2022/07/05 10:56:04;;;;;;;1.58;0.50;;;23.20;95.90;;;;;;5012032;28;20404;-64
2022/07/05 10:58:30;;;;;;;5.38;0.90;;;23.30;95.50;;;;;;5012106;28;20120;-65
2022/07/05 11:01:18;;;;;;;2.47;0.85;;;23.50;95.20;;;;;;5011832;28;20133;-63
2022/07/05 11:04:02;;;;;;;2.22;0.80;;;23.30;94.70;;;;;;5012034;28;20050;-63
2022/07/05 11:06:28;;;;;;;3.55;1.20;;;23.10;94.30;;;;;;5012116;28;20144;-63
2022/07/05 11:08:58;;;;;;;1.08;0.32;;;23.10;94.90;;;;;;5011979;28;20488;-66
2022/07/05 11:11:28;;;;;;;1.77;0.60;;;23.30;93.50;;;;;;4995710;28;20519;-63
2022/07/05 11:13:58;;;;;;;3.20;0.50;;;23.20;92.40;;;;;;5013253;28;20046;-63
2022/07/05 11:16:30;;;;;;;2.67;0.80;;;23.30;93.10;;;;;;5009617;28;20625;-63
2022/07/05 11:19:08;;;;;;;2.83;0.50;;;23.60;93.20;;;;;;5013121;28;20167;-63
2022/07/05 11:21:36;;;;;;;1.42;0.35;;;23.80;91.90;;;;;;5011828;28;20046;-62
2022/07/05 11:24:20;;;;;;;1.25;0.50;;;24.00;91.50;;;;;;5013000;28;20073;-63
2022/07/05 11:26:48;;;;;;;1.13;0.40;;;24.10;92.30;;;;;;5006790;28;20401;-64
2022/07/05 11:29:45;;;;;;;2.90;0.90;;;24.30;91.00;;;;;;5009746;28;20041;-63
2022/07/05 11:32:17;;;;;;;5.20;1.02;;;24.50;87.80;;;;;;4975896;28;20046;-64
2022/07/05 11:34:47;;;;;;;1.42;0.60;;;24.30;88.80;;;;;;5014969;28;20044;-64
2022/07/05 11:37:16;;;;;;;;;;;24.20;90.30;;;;;;5031660;28;20046;-64
2022/07/05 11:39:43;;;;;;;1.92;0.55;;;24.00;90.30;;;;;;5014809;28;19995;-64
2022/07/05 11:42:09;;;;;;;1.70;0.50;;;23.50;89.20;;;;;;5031467;28;20038;-65
2022/07/05 11:44:36;;;;;;;3.00;0.80;;;23.10;89.60;;;;;;5029059;28;20077;-63
2022/07/05 11:47:06;;;;;;;2.95;0.65;;;22.80;90.40;;;;;;5018651;28;20064;-64
2022/07/05 11:49:32;;;;;;;3.05;0.93;;;22.60;91.50;;;;;;5012690;28;20038;-64
2022/07/05 11:52:02;;;;;;;2.70;0.50;;;22.70;92.50;;;;;;5015952;28;20129;-63
2022/07/05 11:54:30;;;;;;;2.90;0.73;;;22.80;91.00;;;;;;5000324;28;20060;-64
2022/07/05 11:56:57;;;;;;;3.67;0.70;;;22.60;90.10;;;;;;5016628;28;20068;-65
2022/07/05 11:59:24;;;;;;;2.45;1.15;;;22.50;92.90;;;;;;5016878;28;20376;-65
2022/07/05 12:01:51;;;;;;;3.15;0.70;;;22.70;93.40;;;;;;5015032;28;20057;-63
2022/07/05 12:04:26;;;;;;;9.20;1.55;;;22.60;93.40;;;;;;5015373;28;20045;-63
2022/07/05 12:06:52;;;;;;;4.43;0.63;;;22.20;94.00;;;;;;5015057;28;20042;-65
2022/07/05 12:15:07;;;;;;;1.95;0.57;;;21.50;94.60;;;;;;5012781;28;20085;-64
2022/07/05 12:17:37;;;;;;;3.97;0.80;;;21.10;94.30;;;;;;5015315;28;20448;-64
2022/07/05 12:20:12;;;;;;;2.83;0.82;;;20.80;95.50;;;;;;5016304;28;20074;-64
2022/07/05 12:22:48;;;;;;;3.72;0.70;;;20.70;96.10;;;;;;5016279;28;20135;-64
2022/07/05 12:25:19;;;;;;;1.98;0.50;;;20.80;95.40;;;;;;5016031;28;20045;-65
2022/07/05 12:27:47;;;;;;;2.28;0.80;;;21.00;96.10;;;;;;5014738;28;20046;-64
2022/07/05 12:30:14;;;;;;;2.17;0.55;;;21.10;96.80;;;;;;5014903;28;20103;-65
2022/07/05 12:32:57;;;;;;;3.15;0.82;;;21.30;97.90;;;;;;5015007;28;20067;-64
2022/07/05 12:35:43;;;;;;;3.50;1.05;;;21.60;97.50;;;;;;5014550;28;20503;-63
2022/07/05 12:38:15;;;;;;;2.92;0.70;;;21.90;95.10;;;;;;5014554;28;20492;-64
2022/07/05 12:40:42;;;;;;;3.28;0.60;;;21.70;93.60;;;;;;5014975;28;20042;-63
2022/07/05 12:43:19;;;;;;;2.40;0.70;;;21.40;92.90;;;;;;5014461;28;20520;-63
2022/07/05 12:46:08;;;;;;;3.38;0.70;;;21.10;94.10;;;;;;5013720;28;20055;-63
2022/07/05 12:48:37;;;;;;;4.57;0.75;;;20.80;96.20;;;;;;4998010;28;20693;-64
2022/07/05 12:51:03;;;;;;;2.67;0.70;;;21.00;96.20;;;;;;5014508;28;20062;-64
2022/07/05 12:59:02;;;;;;;1.48;0.50;;;21.10;93.60;;;;;;5014153;28;20133;-64
2022/07/05 13:01:42;;;;;;;1.15;0.40;;;21.10;92.50;;;;;;4997604;28;20057;-64